Time;durP1;ratioP1;P1;durP2;ratioP2;P2;SDS_P1;SDS_P2;PMS_P1;PMS_P2;Temp;Humidity;BMP_temperature;BMP_pressure;BME280_temperature;BME280_humidity;BME280_pressure;Samples;Min_cycle;Max_cycle;Signal;HPM_P1;HPM_P2
2024/01/03 00:01:31;;;;;;;1.98;0.60;;;22.60;37.70;;;;;;4947483;28;20058;-56
2024/01/03 00:03:59;;;;;;;1.90;0.68;;;22.50;37.70;;;;;;4945411;28;20062;-56
2024/01/03 00:06:33;;;;;;;2.03;0.77;;;22.50;37.70;;;;;;4944470;28;20089;-57
2024/01/03 00:09:00;;;;;;;1.52;0.57;;;22.50;37.70;;;;;;4947026;29;20055;-57
2024/01/03 00:11:30;;;;;;;2.03;0.82;;;22.50;37.70;;;;;;4947326;28;20051;-56
2024/01/03 00:14:09;;;;;;;1.42;0.70;;;22.50;37.70;;;;;;4947065;28;20066;-56
2024/01/03 00:16:39;;;;;;;2.20;0.30;;;22.40;37.60;;;;;;4946043;28;20058;-56
2024/01/03 00:19:13;;;;;;;1.65;0.52;;;22.40;37.60;;;;;;4944852;28;20054;-57
2024/01/03 00:21:41;;;;;;;1.08;0.50;;;22.40;37.70;;;;;;4946505;28;20401;-57
2024/01/03 00:24:12;;;;;;;1.95;0.80;;;22.50;37.70;;;;;;4946763;29;20055;-57
2024/01/03 00:26:41;;;;;;;2.70;1.00;;;22.50;37.80;;;;;;4946523;28;20059;-57
2024/01/03 00:29:46;;;;;;;1.38;0.50;;;22.50;37.80;;;;;;4947696;28;20062;-57
2024/01/03 00:32:14;;;;;;;;;;;22.40;37.70;;;;;;4946801;28;20357;-56
2024/01/03 00:34:43;;;;;;;1.98;0.60;;;22.50;37.80;;;;;;4950171;28;19930;-57
2024/01/03 00:37:28;;;;;;;1.30;0.40;;;22.60;37.60;;;;;;4950252;28;20055;-56
2024/01/03 00:39:58;;;;;;;2.50;0.65;;;22.50;37.50;;;;;;4949840;28;20051;-57
2024/01/03 00:42:25;;;;;;;1.02;0.35;;;22.50;37.50;;;;;;4950521;28;20059;-57
2024/01/03 00:44:53;;;;;;;2.00;0.70;;;22.50;37.50;;;;;;4950452;29;20059;-56
2024/01/03 00:47:22;;;;;;;2.05;0.70;;;22.50;37.40;;;;;;4949553;28;20051;-56
2024/01/03 00:49:51;;;;;;;1.10;0.50;;;22.50;37.40;;;;;;4943607;28;20527;-56
2024/01/03 00:52:20;;;;;;;2.78;0.60;;;22.50;37.40;;;;;;4949070;28;20051;-57
2024/01/03 00:54:47;;;;;;;2.78;0.60;;;22.50;37.40;;;;;;4950223;28;20683;-56
2024/01/03 00:57:16;;;;;;;0.90;0.40;;;22.50;37.40;;;;;;4950258;28;20423;-55
2024/01/03 00:59:45;;;;;;;1.60;0.43;;;22.50;37.30;;;;;;4949615;28;20514;-56
2024/01/03 01:02:13;;;;;;;1.85;0.50;;;22.50;37.30;;;;;;4948502;28;20051;-57
2024/01/03 01:04:41;;;;;;;2.72;0.77;;;22.50;37.30;;;;;;4947841;28;20420;-59
2024/01/03 01:07:11;;;;;;;2.03;0.47;;;22.50;37.30;;;;;;4947893;28;20059;-59
2024/01/03 01:09:38;;;;;;;0.52;0.30;;;22.50;37.30;;;;;;4949662;28;20047;-58
2024/01/03 01:12:05;;;;;;;1.27;0.40;;;22.50;37.30;;;;;;4949464;29;20052;-58
2024/01/03 01:14:33;;;;;;;1.05;0.50;;;22.50;37.30;;;;;;4946246;28;20055;-58
2024/01/03 01:17:00;;;;;;;1.85;0.50;;;22.50;37.30;;;;;;4949662;28;20051;-58
2024/01/03 01:19:28;;;;;;;0.75;0.30;;;22.40;37.30;;;;;;4947228;28;20063;-60
2024/01/03 01:21:55;;;;;;;1.40;0.40;;;22.50;37.40;;;;;;4949369;28;20468;-58
2024/01/03 01:24:23;;;;;;;0.57;0.25;;;22.50;37.40;;;;;;4949118;28;20047;-58
2024/01/03 01:26:51;;;;;;;2.38;0.50;;;22.50;37.40;;;;;;4949141;28;20052;-58
2024/01/03 01:29:18;;;;;;;0.38;0.15;;;22.50;37.40;;;;;;4948702;28;20058;-59
2024/01/03 01:31:47;;;;;;;1.23;0.40;;;22.50;37.40;;;;;;4946093;28;20064;-59
2024/01/03 01:34:14;;;;;;;1.67;0.45;;;22.40;37.30;;;;;;4947116;28;20055;-60
2024/01/03 01:36:42;;;;;;;2.55;0.65;;;22.50;37.40;;;;;;4949764;28;20171;-56
2024/01/03 01:39:09;;;;;;;1.58;0.60;;;22.40;37.30;;;;;;4948934;29;20401;-58
2024/01/03 01:41:38;;;;;;;1.65;0.40;;;22.40;37.40;;;;;;4947075;28;20051;-60
2024/01/03 01:44:06;;;;;;;0.88;0.40;;;22.40;37.40;;;;;;4947446;28;20062;-59
2024/01/03 01:46:36;;;;;;;0.95;0.68;;;22.40;37.50;;;;;;4947586;28;20424;-59
2024/01/03 01:49:05;;;;;;;1.33;0.40;;;22.40;37.50;;;;;;4947410;28;20059;-58
2024/01/03 01:51:33;;;;;;;1.30;0.40;;;22.50;37.60;;;;;;4949207;29;20063;-59
2024/01/03 01:54:01;;;;;;;0.98;0.47;;;22.50;37.60;;;;;;4948210;28;20055;-58
2024/01/03 01:56:29;;;;;;;1.00;0.20;;;22.60;38.20;;;;;;4949091;28;20059;-59
2024/01/03 01:58:58;;;;;;;2.13;0.30;;;22.60;37.60;;;;;;4948496;28;20047;-59
2024/01/03 02:01:27;;;;;;;2.92;0.40;;;22.70;37.60;;;;;;4947099;28;20051;-59
2024/01/03 02:03:54;;;;;;;0.95;0.40;;;22.70;37.60;;;;;;4946636;28;20062;-60
2024/01/03 02:06:22;;;;;;;1.42;0.50;;;22.70;37.50;;;;;;4947729;29;20051;-58
2024/01/03 02:08:49;;;;;;;1.05;0.40;;;22.80;37.60;;;;;;4949266;28;20055;-58
2024/01/03 02:11:16;;;;;;;1.75;0.40;;;22.70;37.50;;;;;;4946834;28;20058;-58
2024/01/03 02:13:44;;;;;;;0.38;0.22;;;22.80;37.50;;;;;;4947641;28;20050;-54
2024/01/03 02:16:13;;;;;;;2.03;0.40;;;22.80;37.50;;;;;;4946799;28;20052;-59
2024/01/03 02:18:42;;;;;;;1.20;0.47;;;22.80;37.50;;;;;;4947215;29;20066;-59
2024/01/03 02:21:14;;;;;;;4.43;0.70;;;22.80;37.50;;;;;;4946904;29;20066;-57
2024/01/03 02:23:41;;;;;;;1.77;0.60;;;22.80;37.40;;;;;;4947037;28;20492;-57
2024/01/03 02:26:08;;;;;;;1.70;0.63;;;22.80;37.40;;;;;;4945796;28;20393;-59
2024/01/03 02:28:36;;;;;;;1.23;0.65;;;22.80;37.50;;;;;;4946859;28;20498;-58
2024/01/03 02:31:03;;;;;;;3.38;0.90;;;22.80;37.50;;;;;;4948700;28;20423;-59
2024/01/03 02:33:30;;;;;;;1.15;0.60;;;22.80;37.40;;;;;;4945207;28;20491;-59
2024/01/03 02:35:57;;;;;;;2.13;0.70;;;22.80;37.40;;;;;;4944430;28;20047;-55
2024/01/03 02:38:26;;;;;;;2.22;0.95;;;22.80;37.40;;;;;;4945784;28;20062;-58
2024/01/03 02:40:53;;;;;;;0.98;0.50;;;22.80;37.40;;;;;;4947538;28;20051;-57
2024/01/03 02:43:21;;;;;;;4.32;0.70;;;22.80;37.40;;;;;;4948147;28;20544;-58
2024/01/03 02:45:48;;;;;;;1.00;0.45;;;22.70;37.30;;;;;;4947650;28;20058;-57
2024/01/03 02:48:15;;;;;;;1.27;0.70;;;22.70;37.30;;;;;;4946637;29;20059;-59
2024/01/03 02:50:47;;;;;;;1.95;0.77;;;22.70;37.30;;;;;;4949534;28;20054;-58
2024/01/03 02:53:15;;;;;;;1.70;0.60;;;22.70;37.30;;;;;;4947424;28;20381;-58
2024/01/03 02:55:43;;;;;;;2.00;0.77;;;22.70;37.30;;;;;;4947478;28;20680;-58
2024/01/03 02:58:10;;;;;;;2.67;0.80;;;22.60;37.80;;;;;;4947240;28;20087;-58
2024/01/03 03:00:39;;;;;;;1.73;0.70;;;22.60;37.30;;;;;;4947054;29;20055;-58
2024/01/03 03:03:06;;;;;;;1.30;0.55;;;22.60;37.30;;;;;;4945077;28;20054;-58
2024/01/03 03:05:33;;;;;;;2.85;0.80;;;22.60;37.30;;;;;;4947608;28;20055;-58
2024/01/03 03:08:00;;;;;;;2.22;0.73;;;22.60;37.40;;;;;;4947754;28;21331;-57
2024/01/03 03:10:28;;;;;;;2.35;0.90;;;22.50;37.30;;;;;;4947442;28;20058;-59
2024/01/03 03:12:56;;;;;;;2.10;0.90;;;22.50;37.40;;;;;;4947972;28;20046;-57
2024/01/03 03:15:24;;;;;;;2.33;0.63;;;22.50;37.40;;;;;;4947358;29;20055;-57
2024/01/03 03:17:51;;;;;;;1.55;0.68;;;22.50;37.40;;;;;;4946527;28;20055;-55
2024/01/03 03:20:18;;;;;;;2.00;0.80;;;22.50;37.40;;;;;;4946603;28;20055;-58
2024/01/03 03:22:45;;;;;;;4.28;0.80;;;22.50;37.40;;;;;;4944189;28;20063;-57
2024/01/03 03:25:12;;;;;;;3.45;1.05;;;22.40;37.40;;;;;;4947941;28;20504;-60
2024/01/03 03:27:40;;;;;;;3.13;0.73;;;22.40;37.50;;;;;;4947254;29;20414;-59
2024/01/03 03:30:09;;;;;;;1.90;0.65;;;22.40;37.50;;;;;;4948205;28;20054;-58
2024/01/03 03:32:36;;;;;;;1.92;0.80;;;22.40;37.50;;;;;;4941395;28;20066;-57
2024/01/03 03:35:04;;;;;;;4.82;1.02;;;22.40;37.50;;;;;;4945794;28;20055;-58
2024/01/03 03:37:31;;;;;;;2.92;0.80;;;22.30;37.50;;;;;;4945573;28;20063;-58
2024/01/03 03:39:59;;;;;;;3.30;0.75;;;22.30;37.60;;;;;;4947040;28;20070;-57
2024/01/03 03:42:26;;;;;;;1.48;0.60;;;22.30;37.60;;;;;;4945531;28;20488;-58
2024/01/03 03:44:54;;;;;;;1.83;0.65;;;22.30;37.60;;;;;;4947056;28;20047;-58
2024/01/03 03:47:23;;;;;;;2.15;0.80;;;22.30;37.70;;;;;;4945685;28;20078;-59
2024/01/03 03:49:50;;;;;;;1.23;0.60;;;22.30;37.70;;;;;;4945884;28;20054;-58
2024/01/03 03:52:17;;;;;;;0.70;0.63;;;22.40;37.80;;;;;;4946310;28;20063;-59
2024/01/03 03:54:45;;;;;;;3.05;0.60;;;22.40;37.80;;;;;;4948043;29;20400;-59
2024/01/03 03:57:12;;;;;;;2.85;0.77;;;22.50;37.80;;;;;;4941790;28;20059;-58
2024/01/03 03:59:41;;;;;;;1.48;0.65;;;22.50;37.80;;;;;;4947824;28;20063;-58
2024/01/03 04:02:08;;;;;;;2.25;0.57;;;22.50;37.70;;;;;;4944472;28;20081;-58
2024/01/03 04:04:37;;;;;;;2.22;0.70;;;22.50;37.60;;;;;;4945392;28;20062;-56
2024/01/03 04:07:04;;;;;;;2.22;0.50;;;22.60;37.60;;;;;;4950201;28;20047;-56
2024/01/03 04:09:32;;;;;;;4.03;0.90;;;22.60;37.60;;;;;;4950868;29;20059;-59
2024/01/03 04:11:59;;;;;;;3.13;0.90;;;22.70;37.60;;;;;;4950506;28;20054;-59
2024/01/03 04:14:26;;;;;;;2.20;0.60;;;22.70;37.60;;;;;;4950621;28;20342;-58
2024/01/03 04:16:53;;;;;;;1.40;0.63;;;22.70;37.60;;;;;;4952571;28;20544;-57
2024/01/03 04:19:20;;;;;;;1.15;0.50;;;22.80;37.60;;;;;;4948590;28;20055;-59
2024/01/03 04:21:49;;;;;;;2.47;0.80;;;22.70;37.50;;;;;;4950823;29;20637;-57
2024/01/03 04:24:16;;;;;;;2.58;0.85;;;22.80;37.50;;;;;;4949861;28;20507;-57
2024/01/03 04:26:43;;;;;;;2.45;0.73;;;22.80;37.50;;;;;;4952412;28;20051;-59
2024/01/03 04:29:11;;;;;;;2.38;0.77;;;22.80;37.50;;;;;;4949804;28;20412;-58
2024/01/03 04:31:38;;;;;;;1.63;0.75;;;22.80;37.50;;;;;;4949105;28;20051;-57
2024/01/03 04:34:05;;;;;;;2.13;0.95;;;22.70;37.50;;;;;;4948870;29;20062;-56
2024/01/03 04:36:32;;;;;;;4.43;1.23;;;22.80;37.50;;;;;;4948971;28;20062;-57
2024/01/03 04:39:01;;;;;;;2.03;0.85;;;22.70;37.50;;;;;;4948054;28;20066;-56
2024/01/03 04:41:28;;;;;;;2.85;0.90;;;22.70;37.50;;;;;;4949260;28;20062;-57
2024/01/03 04:43:55;;;;;;;2.35;1.00;;;22.70;37.50;;;;;;4950075;28;20055;-57
2024/01/03 04:46:23;;;;;;;2.80;0.88;;;22.70;37.50;;;;;;4949052;28;20480;-58
2024/01/03 04:48:50;;;;;;;1.92;0.82;;;22.70;37.50;;;;;;4948054;28;20047;-59
2024/01/03 04:51:17;;;;;;;2.00;0.95;;;22.70;37.50;;;;;;4948154;28;20416;-59
2024/01/03 04:53:45;;;;;;;7.90;1.30;;;22.70;37.50;;;;;;4949723;28;20043;-57
2024/01/03 04:56:13;;;;;;;3.17;0.90;;;22.60;37.50;;;;;;4948425;28;20416;-58
2024/01/03 04:58:40;;;;;;;8.13;1.05;;;22.60;37.50;;;;;;4947015;28;20500;-59
2024/01/03 05:01:08;;;;;;;11.30;1.48;;;22.60;37.50;;;;;;4947098;29;20051;-54
2024/01/03 05:03:35;;;;;;;13.75;1.10;;;22.60;37.50;;;;;;4947908;28;20055;-53
2024/01/03 05:06:02;;;;;;;1.33;0.55;;;22.60;37.50;;;;;;4952029;28;20054;-53
2024/01/03 05:08:29;;;;;;;4.05;1.05;;;22.60;37.50;;;;;;4949449;28;20058;-55
2024/01/03 05:10:56;;;;;;;2.00;0.63;;;22.60;37.40;;;;;;4953581;28;20054;-56
2024/01/03 05:13:25;;;;;;;3.85;0.77;;;22.50;37.30;;;;;;4952327;28;20508;-57
2024/01/03 05:15:53;;;;;;;3.88;0.70;;;22.50;37.30;;;;;;4953478;29;20059;-56
2024/01/03 05:18:20;;;;;;;2.75;0.68;;;22.50;37.40;;;;;;4950038;28;20059;-54
2024/01/03 05:20:47;;;;;;;4.90;1.02;;;22.50;37.40;;;;;;4952139;28;20519;-55
2024/01/03 05:23:14;;;;;;;2.53;0.88;;;22.50;37.40;;;;;;4955231;28;20070;-58
2024/01/03 05:25:42;;;;;;;1.65;0.57;;;22.50;37.40;;;;;;4950518;28;20437;-57
2024/01/03 05:28:09;;;;;;;1.45;0.50;;;22.50;37.40;;;;;;4953666;29;20504;-58
2024/01/03 05:30:37;;;;;;;1.08;0.47;;;22.40;37.40;;;;;;4955186;28;20051;-57
2024/01/03 05:33:05;;;;;;;1.50;0.63;;;22.40;37.50;;;;;;4956469;28;20051;-57
2024/01/03 05:35:32;;;;;;;2.40;0.70;;;22.40;37.50;;;;;;4951335;28;20515;-57
2024/01/03 05:37:59;;;;;;;1.58;0.60;;;22.40;37.50;;;;;;4949627;28;20055;-57
2024/01/03 05:40:27;;;;;;;2.08;0.75;;;22.40;37.60;;;;;;4943722;28;20058;-57
2024/01/03 05:42:54;;;;;;;2.35;0.90;;;22.40;37.60;;;;;;4953331;29;20070;-58
2024/01/03 05:45:21;;;;;;;1.92;0.55;;;22.40;37.70;;;;;;4949535;29;20055;-58
2024/01/03 05:47:50;;;;;;;1.67;0.50;;;22.40;37.70;;;;;;4952451;28;20055;-59
2024/01/03 05:50:17;;;;;;;2.90;0.63;;;22.40;37.80;;;;;;4951299;28;20055;-57
2024/01/03 05:52:44;;;;;;;1.48;0.50;;;22.40;37.80;;;;;;4952647;28;20062;-57
2024/01/03 05:55:12;;;;;;;2.10;0.65;;;22.50;37.90;;;;;;4953048;29;20412;-59
2024/01/03 05:57:39;;;;;;;1.63;0.63;;;22.50;37.90;;;;;;4954176;28;20059;-59
2024/01/03 06:00:07;;;;;;;2.25;0.50;;;22.60;37.90;;;;;;4951944;28;20047;-59
2024/01/03 06:02:34;;;;;;;1.58;0.70;;;22.60;37.80;;;;;;4952358;28;20420;-58
2024/01/03 06:05:03;;;;;;;2.47;0.73;;;22.70;37.80;;;;;;4949599;28;20043;-59
2024/01/03 06:07:30;;;;;;;1.65;0.73;;;22.70;37.90;;;;;;4951484;28;20284;-58
2024/01/03 06:09:57;;;;;;;3.67;1.25;;;22.80;37.70;;;;;;4949516;29;20066;-57
2024/01/03 06:12:24;;;;;;;3.55;0.93;;;22.80;37.70;;;;;;4951908;28;20496;-58
2024/01/03 06:14:52;;;;;;;2.42;0.70;;;22.80;37.70;;;;;;4959791;28;20058;-59
2024/01/03 06:17:19;;;;;;;2.83;0.70;;;22.90;38.20;;;;;;4951909;28;20055;-59
2024/01/03 06:19:46;;;;;;;2.47;0.52;;;22.90;37.60;;;;;;4932511;28;20054;-58
2024/01/03 06:22:15;;;;;;;6.38;0.80;;;23.00;37.60;;;;;;4943730;29;20059;-58
2024/01/03 06:24:42;;;;;;;3.25;1.00;;;23.00;37.50;;;;;;4951297;28;20141;-57
2024/01/03 06:27:10;;;;;;;3.55;1.10;;;23.10;37.50;;;;;;4951146;28;20373;-59
2024/01/03 06:29:37;;;;;;;7.22;1.65;;;23.10;37.50;;;;;;4950193;28;20062;-59
2024/01/03 06:32:05;;;;;;;8.57;3.33;;;23.10;37.50;;;;;;4952647;28;20431;-58
2024/01/03 06:34:32;;;;;;;8.52;4.60;;;23.10;37.40;;;;;;4950275;28;20051;-59
2024/01/03 06:37:00;;;;;;;5.90;3.65;;;23.10;37.30;;;;;;4951695;28;20059;-58
2024/01/03 06:39:28;;;;;;;6.10;3.30;;;23.10;37.30;;;;;;4957667;28;20066;-60
2024/01/03 06:41:56;;;;;;;6.07;3.20;;;23.10;37.30;;;;;;4957810;28;20050;-58
2024/01/03 06:44:23;;;;;;;9.43;2.50;;;23.10;37.20;;;;;;4949898;28;20051;-55
2024/01/03 06:46:51;;;;;;;4.22;2.28;;;23.10;37.30;;;;;;4948794;29;20062;-59
2024/01/03 06:49:18;;;;;;;3.85;2.28;;;23.10;37.20;;;;;;4951309;28;20070;-60
2024/01/03 06:51:47;;;;;;;4.82;2.08;;;23.10;37.20;;;;;;4951150;29;20055;-57
2024/01/03 06:54:14;;;;;;;6.57;2.60;;;23.10;37.20;;;;;;4951544;28;20524;-57
2024/01/03 06:56:43;;;;;;;5.18;2.45;;;23.10;37.20;;;;;;4958070;28;20093;-58
2024/01/03 06:59:10;;;;;;;4.47;2.30;;;23.10;37.20;;;;;;4951684;28;20506;-57
2024/01/03 07:01:38;;;;;;;5.57;2.35;;;23.00;37.10;;;;;;4951637;28;20480;-58
2024/01/03 07:04:06;;;;;;;6.35;2.30;;;23.00;37.10;;;;;;4945191;28;20062;-57
2024/01/03 07:06:35;;;;;;;8.05;1.92;;;23.00;37.10;;;;;;4951758;28;20407;-58
2024/01/03 07:09:02;;;;;;;5.10;2.05;;;23.00;37.30;;;;;;4940998;28;20054;-58
2024/01/03 07:11:29;;;;;;;3.60;1.90;;;23.00;37.20;;;;;;4950349;28;20055;-58
2024/01/03 07:13:59;;;;;;;3.28;1.63;;;22.90;37.20;;;;;;4949621;28;20490;-57
2024/01/03 07:16:27;;;;;;;4.55;1.95;;;23.00;37.20;;;;;;4951159;28;20058;-58
2024/01/03 07:18:54;;;;;;;5.45;1.50;;;22.90;37.20;;;;;;4949113;28;20055;-57
2024/01/03 07:21:22;;;;;;;9.57;1.55;;;22.90;37.20;;;;;;4940481;28;20071;-58
2024/01/03 07:23:50;;;;;;;6.00;1.80;;;22.90;37.30;;;;;;4958974;28;20110;-58
2024/01/03 07:26:17;;;;;;;16.98;1.95;;;22.90;37.30;;;;;;4950366;28;20054;-58
2024/01/03 07:28:44;;;;;;;6.78;1.92;;;23.00;37.50;;;;;;4943538;29;20055;-57
2024/01/03 07:31:13;;;;;;;15.20;1.98;;;23.00;37.50;;;;;;4957095;28;20408;-58
2024/01/03 07:33:41;;;;;;;2.95;1.40;;;23.00;37.40;;;;;;4953458;28;20496;-57
2024/01/03 07:36:09;;;;;;;3.42;1.10;;;23.00;37.40;;;;;;4948060;28;20419;-55
2024/01/03 07:38:36;;;;;;;8.93;1.63;;;23.10;37.40;;;;;;4956931;28;20408;-56
2024/01/03 07:41:03;;;;;;;8.98;3.20;;;23.10;37.30;;;;;;4951368;28;20055;-56
2024/01/03 07:43:30;;;;;;;9.98;4.38;;;23.20;37.30;;;;;;4943776;28;20423;-55
2024/01/03 07:45:59;;;;;;;10.93;3.80;;;23.10;37.20;;;;;;4949647;28;20047;-57
2024/01/03 07:48:27;;;;;;;7.13;2.63;;;23.10;37.20;;;;;;4945259;28;20411;-55
2024/01/03 07:50:54;;;;;;;8.02;2.42;;;23.20;37.20;;;;;;4943565;28;20059;-54
2024/01/03 07:53:22;;;;;;;5.88;2.65;;;23.20;37.20;;;;;;4952570;28;20062;-56
2024/01/03 07:55:49;;;;;;;8.52;2.58;;;23.20;37.20;;;;;;4950255;28;20514;-55
2024/01/03 07:58:16;;;;;;;4.85;2.35;;;23.20;37.30;;;;;;4950604;28;20051;-55
2024/01/03 08:00:44;;;;;;;7.97;2.13;;;23.20;37.30;;;;;;4944022;29;20642;-55
2024/01/03 08:03:11;;;;;;;7.00;2.25;;;23.20;37.30;;;;;;4946529;28;20058;-51
2024/01/03 08:05:39;;;;;;;9.10;2.03;;;23.20;37.20;;;;;;4949579;28;20122;-57
2024/01/03 08:08:07;;;;;;;11.60;2.25;;;23.20;37.20;;;;;;4951581;28;20051;-56
2024/01/03 08:10:34;;;;;;;7.38;1.88;;;23.20;37.30;;;;;;4945689;28;20058;-54
2024/01/03 08:13:01;;;;;;;9.77;2.00;;;23.20;37.30;;;;;;4950106;28;20051;-53
2024/01/03 08:15:28;;;;;;;4.25;1.80;;;23.10;37.30;;;;;;4943688;28;20051;-55
2024/01/03 08:17:56;;;;;;;4.55;1.63;;;23.10;37.30;;;;;;4949735;28;20051;-55
2024/01/03 08:20:23;;;;;;;6.43;1.60;;;23.10;37.30;;;;;;4951454;28;20058;-58
2024/01/03 08:22:52;;;;;;;5.28;1.90;;;23.10;37.30;;;;;;4950774;28;20047;-56
2024/01/03 08:25:20;;;;;;;4.18;1.55;;;23.10;37.40;;;;;;4950062;28;20055;-58
2024/01/03 08:27:47;;;;;;;5.30;1.30;;;23.00;37.30;;;;;;4950043;28;20063;-56
2024/01/03 08:30:14;;;;;;;3.60;1.55;;;23.00;37.20;;;;;;4948192;28;20070;-56
2024/01/03 08:32:41;;;;;;;2.90;0.98;;;23.00;37.20;;;;;;4950055;28;20078;-57
2024/01/03 08:35:09;;;;;;;3.28;1.00;;;23.00;37.20;;;;;;4948778;29;20066;-58
2024/01/03 08:37:37;;;;;;;6.03;1.10;;;23.00;37.20;;;;;;4950967;29;20062;-58
2024/01/03 08:40:07;;;;;;;11.27;1.40;;;22.90;37.10;;;;;;4950153;28;20059;-58
2024/01/03 08:42:35;;;;;;;2.58;1.10;;;22.90;37.20;;;;;;4948239;29;20423;-59
2024/01/03 08:45:03;;;;;;;3.60;0.98;;;22.90;37.20;;;;;;4947542;29;20051;-59
2024/01/03 08:47:31;;;;;;;3.53;1.00;;;22.90;37.20;;;;;;4951963;28;20071;-59
2024/01/03 08:49:58;;;;;;;2.50;1.10;;;22.90;37.20;;;;;;4950784;28;20055;-59
2024/01/03 08:52:26;;;;;;;1.60;0.60;;;22.80;37.60;;;;;;4943952;28;20526;-59
2024/01/03 08:54:53;;;;;;;2.13;1.00;;;22.80;37.10;;;;;;4955111;28;20408;-59
2024/01/03 08:57:22;;;;;;;5.03;0.90;;;22.80;37.20;;;;;;4953106;29;20047;-59
2024/01/03 08:59:49;;;;;;;6.40;0.90;;;22.80;37.30;;;;;;4953576;29;20063;-60
2024/01/03 09:02:17;;;;;;;2.90;1.05;;;22.80;37.30;;;;;;4953320;29;20063;-59
2024/01/03 09:04:45;;;;;;;2.28;0.82;;;22.80;37.30;;;;;;4961727;28;20380;-57
2024/01/03 09:07:12;;;;;;;1.65;0.70;;;22.80;37.50;;;;;;4954346;28;20055;-57
2024/01/03 09:09:40;;;;;;;10.40;3.20;;;22.80;37.60;;;;;;4951477;28;20063;-57
2024/01/03 09:12:08;;;;;;;5.55;1.50;;;22.90;37.70;;;;;;4952490;28;20062;-57
2024/01/03 09:14:36;;;;;;;5.68;1.33;;;22.90;37.70;;;;;;4953120;28;20407;-58
2024/01/03 09:17:04;;;;;;;4.20;1.20;;;22.90;37.60;;;;;;4952435;28;20051;-56
2024/01/03 09:19:31;;;;;;;7.18;1.10;;;23.00;37.60;;;;;;4951635;28;20389;-57
2024/01/03 09:21:59;;;;;;;3.65;1.20;;;23.00;37.50;;;;;;4953745;28;20722;-55
2024/01/03 09:24:29;;;;;;;2.20;1.00;;;23.00;37.50;;;;;;4952706;28;20055;-55
2024/01/03 09:26:56;;;;;;;8.20;1.15;;;23.10;37.50;;;;;;4951943;28;20487;-56
2024/01/03 09:29:24;;;;;;;6.35;1.10;;;23.10;37.40;;;;;;4953555;28;20074;-55
2024/01/03 09:31:53;;;;;;;5.55;1.13;;;23.10;37.30;;;;;;4953470;28;20062;-55
2024/01/03 09:34:21;;;;;;;4.68;1.17;;;23.10;37.30;;;;;;4951331;28;20669;-56
2024/01/03 09:36:48;;;;;;;4.18;1.10;;;23.20;37.20;;;;;;4952245;28;20051;-57
2024/01/03 09:39:17;;;;;;;2.92;0.98;;;23.20;37.10;;;;;;4952863;28;20059;-58
2024/01/03 09:41:44;;;;;;;3.30;1.00;;;23.20;37.00;;;;;;4951711;28;20495;-57
2024/01/03 09:44:12;;;;;;;4.28;1.20;;;23.20;37.00;;;;;;4947472;28;20055;-58
2024/01/03 09:46:39;;;;;;;4.28;1.17;;;23.20;37.00;;;;;;4946050;28;20408;-58
2024/01/03 09:49:09;;;;;;;6.07;2.05;;;23.20;36.90;;;;;;4947077;28;20051;-56
2024/01/03 09:51:36;;;;;;;8.05;1.27;;;23.20;37.00;;;;;;4950740;28;20054;-57
2024/01/03 09:54:07;;;;;;;3.65;1.13;;;23.10;36.90;;;;;;4952713;28;20055;-55
2024/01/03 09:56:37;;;;;;;3.55;1.20;;;23.10;36.80;;;;;;4960286;28;20059;-55
2024/01/03 09:59:04;;;;;;;11.88;1.20;;;23.10;36.80;;;;;;4953916;28;20059;-57
2024/01/03 10:01:32;;;;;;;4.93;1.27;;;23.10;36.70;;;;;;4953220;29;20533;-58
2024/01/03 10:03:59;;;;;;;5.05;1.20;;;23.10;36.60;;;;;;4950542;28;20082;-57
2024/01/03 10:06:28;;;;;;;4.05;1.33;;;23.10;36.60;;;;;;4949126;28;20480;-53
2024/01/03 10:08:59;;;;;;;3.83;1.17;;;23.00;36.60;;;;;;4951593;29;20066;-55
2024/01/03 10:11:27;;;;;;;3.28;1.50;;;23.00;36.60;;;;;;4952854;28;20052;-54
2024/01/03 10:13:56;;;;;;;4.07;1.23;;;23.00;36.60;;;;;;4954251;28;20055;-57
2024/01/03 10:16:25;;;;;;;4.88;0.98;;;23.00;36.70;;;;;;4951483;28;20058;-57
2024/01/03 10:19:11;;;;;;;3.63;1.08;;;22.90;36.70;;;;;;4950741;28;20055;-56
2024/01/03 10:21:47;;;;;;;2.63;1.13;;;22.90;36.80;;;;;;4951196;28;20067;-56
2024/01/03 10:24:15;;;;;;;5.18;1.15;;;22.90;36.90;;;;;;4948544;28;20124;-56
2024/01/03 10:26:42;;;;;;;9.35;1.85;;;22.80;36.80;;;;;;4950045;28;20487;-58
2024/01/03 10:29:11;;;;;;;5.10;1.50;;;22.90;36.90;;;;;;4950518;28;20051;-56
2024/01/03 10:31:38;;;;;;;3.78;1.48;;;22.80;37.00;;;;;;4952373;28;20076;-57
2024/01/03 10:34:06;;;;;;;4.25;1.15;;;22.80;36.90;;;;;;4948830;29;20062;-59
2024/01/03 10:36:35;;;;;;;5.65;1.92;;;22.80;36.90;;;;;;4945959;28;20063;-57
2024/01/03 10:39:05;;;;;;;3.60;1.38;;;22.80;37.00;;;;;;4953220;28;20058;-59
2024/01/03 10:41:34;;;;;;;7.90;1.30;;;22.80;37.00;;;;;;4948361;28;20074;-58
2024/01/03 10:44:01;;;;;;;6.05;1.67;;;22.70;37.10;;;;;;4947366;29;20059;-58
2024/01/03 10:46:31;;;;;;;7.18;1.48;;;22.70;37.10;;;;;;4944489;28;20070;-57
2024/01/03 10:48:59;;;;;;;5.15;0.98;;;22.80;37.30;;;;;;4948028;28;20062;-58
2024/01/03 10:51:33;;;;;;;8.57;1.45;;;22.80;37.30;;;;;;4946391;28;20055;-57
2024/01/03 10:54:02;;;;;;;9.73;1.75;;;22.80;37.50;;;;;;4929627;29;20056;-59
2024/01/03 10:56:33;;;;;;;4.93;1.80;;;22.90;37.50;;;;;;4941616;28;20050;-54
2024/01/03 10:59:01;;;;;;;13.88;2.35;;;22.90;37.50;;;;;;4953387;28;20050;-58
2024/01/03 11:01:34;;;;;;;10.30;1.90;;;23.00;37.50;;;;;;4937803;28;20403;-58
2024/01/03 11:04:08;;;;;;;5.10;1.58;;;23.00;37.50;;;;;;4951472;28;20634;-57
2024/01/03 11:06:42;;;;;;;7.82;1.98;;;23.10;37.40;;;;;;4951915;28;20051;-58
2024/01/03 11:09:09;;;;;;;5.47;1.50;;;23.10;37.30;;;;;;4941720;28;20050;-57
2024/01/03 11:11:39;;;;;;;7.97;2.20;;;23.10;37.20;;;;;;4947595;29;20055;-57
2024/01/03 11:14:23;;;;;;;3.92;1.73;;;23.20;37.20;;;;;;4944039;28;20449;-56
2024/01/03 11:16:51;;;;;;;11.87;1.80;;;23.20;37.20;;;;;;4948818;28;20059;-56
2024/01/03 11:19:27;;;;;;;6.93;1.75;;;23.20;37.10;;;;;;4949016;28;20047;-60
2024/01/03 11:21:55;;;;;;;3.72;1.65;;;23.20;37.10;;;;;;4947989;28;20067;-60
2024/01/03 11:24:56;;;;;;;6.18;1.33;;;23.20;37.10;;;;;;4947666;28;20389;-60
2024/01/03 11:27:24;;;;;;;3.13;1.15;;;23.20;37.00;;;;;;4954522;28;20047;-59
2024/01/03 11:29:53;;;;;;;9.98;2.30;;;23.20;37.00;;;;;;4951047;28;20062;-58
2024/01/03 11:32:35;;;;;;;5.45;1.55;;;23.20;36.90;;;;;;4954926;28;20522;-60
2024/01/03 11:35:05;;;;;;;5.70;1.70;;;23.20;36.90;;;;;;4950390;28;20491;-61
2024/01/03 11:37:40;;;;;;;4.95;1.30;;;23.20;36.80;;;;;;4940770;28;20051;-60
2024/01/03 11:40:19;;;;;;;4.43;1.30;;;23.20;36.70;;;;;;4948622;28;20070;-61
2024/01/03 11:42:48;;;;;;;11.30;2.38;;;23.20;36.90;;;;;;4945792;28;20054;-60
2024/01/03 11:45:17;;;;;;;11.48;2.47;;;23.20;36.90;;;;;;4949057;28;20514;-59
2024/01/03 11:47:45;;;;;;;8.07;2.25;;;23.20;36.90;;;;;;4931123;29;20404;-58
2024/01/03 11:50:14;;;;;;;6.88;1.60;;;23.20;36.90;;;;;;4949449;28;20067;-58
2024/01/03 11:52:45;;;;;;;4.45;1.25;;;23.20;36.80;;;;;;4944037;28;20052;-58
2024/01/03 11:55:16;;;;;;;24.30;14.40;;;23.10;36.80;;;;;;4942559;28;20047;-57
2024/01/03 11:57:44;;;;;;;39.72;19.25;;;23.10;36.70;;;;;;4940613;28;20051;-58
2024/01/03 12:00:15;;;;;;;15.20;8.35;;;23.10;36.60;;;;;;4942038;28;20508;-57
2024/01/03 12:02:52;;;;;;;10.00;4.25;;;23.10;36.60;;;;;;4945004;28;20056;-58
2024/01/03 12:05:21;;;;;;;6.28;2.70;;;23.00;36.50;;;;;;4946131;28;20055;-58
2024/01/03 12:07:49;;;;;;;9.32;2.60;;;23.00;36.50;;;;;;4949738;28;20054;-57
2024/01/03 12:10:17;;;;;;;5.72;3.00;;;23.00;36.50;;;;;;4950873;29;20059;-58
2024/01/03 12:12:46;;;;;;;6.35;2.70;;;23.00;36.60;;;;;;4949986;28;20047;-58
2024/01/03 12:15:27;;;;;;;6.40;2.63;;;23.00;36.60;;;;;;4950082;29;20050;-58
2024/01/03 12:18:03;;;;;;;5.43;2.28;;;22.90;36.60;;;;;;4945374;28;20499;-56
2024/01/03 12:20:30;;;;;;;4.70;1.98;;;22.90;36.60;;;;;;4942119;28;20066;-56
2024/01/03 12:23:06;;;;;;;7.80;2.30;;;22.90;36.60;;;;;;4940022;29;20055;-58
2024/01/03 12:25:33;;;;;;;4.53;1.88;;;22.90;36.60;;;;;;4939699;29;20067;-57
2024/01/03 12:28:01;;;;;;;7.28;2.20;;;22.80;36.60;;;;;;4947882;28;20059;-57
2024/01/03 12:30:31;;;;;;;5.60;2.00;;;22.80;36.60;;;;;;4940018;29;20055;-58
2024/01/03 12:33:08;;;;;;;3.92;1.85;;;22.80;36.60;;;;;;4939499;28;20517;-57
2024/01/03 12:35:36;;;;;;;51.25;28.42;;;22.80;36.60;;;;;;4950869;28;20059;-56
2024/01/03 12:38:04;;;;;;;57.88;33.67;;;22.70;36.70;;;;;;4954183;28;20655;-58
2024/01/03 12:40:31;;;;;;;22.00;13.35;;;22.70;36.70;;;;;;4942943;29;20063;-58
2024/01/03 12:42:59;;;;;;;14.50;8.27;;;22.70;36.80;;;;;;4945893;29;20052;-58
2024/01/03 12:45:26;;;;;;;10.50;5.18;;;22.70;36.80;;;;;;4943011;29;20058;-57
2024/01/03 12:47:54;;;;;;;8.10;4.15;;;22.70;36.80;;;;;;4941152;29;20515;-57
2024/01/03 12:50:23;;;;;;;7.85;4.15;;;22.80;36.90;;;;;;4948041;29;20052;-55
2024/01/03 12:52:50;;;;;;;9.15;4.93;;;22.80;37.00;;;;;;4943935;29;20051;-58